Time;durP1;ratioP1;P1;durP2;ratioP2;P2;SDS_P1;SDS_P2;PMS_P1;PMS_P2;Temp;Humidity;BMP_temperature;BMP_pressure;BME280_temperature;BME280_humidity;BME280_pressure;Samples;Min_cycle;Max_cycle;Signal;HPM_P1;HPM_P2
2022/02/27 00:02:02;;;;;;;9.10;3.33;;;2.90;75.50;;;;;;4807987;29;20058;-72
2022/02/27 00:04:30;;;;;;;13.38;2.97;;;2.90;75.60;;;;;;4808102;29;20062;-71
2022/02/27 00:06:58;;;;;;;8.82;2.55;;;2.90;75.90;;;;;;4808070;29;20054;-72
2022/02/27 00:09:28;;;;;;;7.68;2.42;;;2.80;76.10;;;;;;4822348;29;20051;-71
2022/02/27 00:11:56;;;;;;;10.23;2.95;;;2.80;76.50;;;;;;4812061;29;20062;-71
2022/02/27 00:14:24;;;;;;;9.63;3.10;;;2.90;76.50;;;;;;4808387;29;20401;-71
2022/02/27 00:16:51;;;;;;;10.85;3.20;;;2.90;76.60;;;;;;4807771;29;20047;-72
2022/02/27 00:19:21;;;;;;;8.63;3.08;;;2.90;76.60;;;;;;4807499;29;20059;-72
2022/02/27 00:21:49;;;;;;;12.85;3.13;;;2.90;76.60;;;;;;4807879;29;20062;-72
2022/02/27 00:24:18;;;;;;;10.75;3.20;;;2.90;76.70;;;;;;4807873;29;20059;-72
2022/02/27 00:26:46;;;;;;;9.88;2.55;;;2.90;76.90;;;;;;4807702;29;20386;-72
2022/02/27 00:29:15;;;;;;;9.32;2.95;;;3.00;76.90;;;;;;4807552;29;20054;-72
2022/02/27 00:31:43;;;;;;;12.95;3.10;;;3.00;76.80;;;;;;4807497;29;20059;-72
2022/02/27 00:34:10;;;;;;;11.80;3.33;;;3.00;76.80;;;;;;4807524;29;20047;-72
2022/02/27 00:36:39;;;;;;;15.23;3.35;;;3.00;76.70;;;;;;4807213;29;20413;-72
2022/02/27 00:39:07;;;;;;;12.82;3.47;;;3.00;76.70;;;;;;4807419;29;20059;-72
2022/02/27 00:41:38;;;;;;;9.80;3.55;;;3.00;76.70;;;;;;4806162;29;20395;-72
2022/02/27 00:44:06;;;;;;;12.80;3.65;;;3.00;76.80;;;;;;4807419;29;20494;-72
2022/02/27 00:46:35;;;;;;;13.30;3.67;;;3.00;76.80;;;;;;4807077;29;20173;-72
2022/02/27 00:49:02;;;;;;;10.88;3.53;;;3.00;76.90;;;;;;4803674;29;20055;-72
2022/02/27 00:51:31;;;;;;;11.20;3.55;;;2.90;77.00;;;;;;4805541;29;20047;-72
2022/02/27 00:54:03;;;;;;;8.55;2.92;;;2.80;77.10;;;;;;4820426;29;20059;-72
2022/02/27 00:56:30;;;;;;;13.88;3.47;;;2.80;77.20;;;;;;4807068;29;20051;-72
2022/02/27 00:58:58;;;;;;;11.40;3.20;;;2.80;77.30;;;;;;4820948;29;20055;-72
2022/02/27 01:01:26;;;;;;;6.75;3.00;;;2.80;77.40;;;;;;4806813;29;20062;-72
2022/02/27 01:03:54;;;;;;;9.25;3.22;;;2.80;77.50;;;;;;4805709;29;20524;-72
2022/02/27 01:06:24;;;;;;;8.45;3.10;;;2.80;77.60;;;;;;4805724;29;20059;-72
2022/02/27 01:08:51;;;;;;;10.98;3.08;;;2.80;77.60;;;;;;4819566;29;20054;-72
2022/02/27 01:11:19;;;;;;;11.45;3.33;;;2.80;77.70;;;;;;4805851;29;20402;-72
2022/02/27 01:13:47;;;;;;;11.07;3.65;;;2.70;77.80;;;;;;4819700;29;20058;-72
2022/02/27 01:16:14;;;;;;;13.45;3.55;;;2.70;77.80;;;;;;4806603;29;20059;-72
2022/02/27 01:18:42;;;;;;;10.90;3.47;;;2.70;78.00;;;;;;4806563;29;20308;-72
2022/02/27 01:21:09;;;;;;;14.10;4.05;;;2.60;78.10;;;;;;4820532;29;20067;-72
2022/02/27 01:23:40;;;;;;;11.65;3.45;;;2.50;78.20;;;;;;4806709;29;20413;-72
2022/02/27 01:26:07;;;;;;;13.38;4.00;;;2.50;78.20;;;;;;4806475;29;20047;-72
2022/02/27 01:28:37;;;;;;;15.63;3.63;;;2.40;78.30;;;;;;4820050;29;20051;-72
2022/02/27 01:31:07;;;;;;;13.40;4.35;;;2.30;78.50;;;;;;4805268;29;20059;-71
2022/02/27 01:33:35;;;;;;;17.70;4.03;;;2.30;78.60;;;;;;4820428;29;20055;-71
2022/02/27 01:36:05;;;;;;;16.13;4.32;;;2.20;78.80;;;;;;4820184;29;20050;-72
2022/02/27 01:38:36;;;;;;;16.95;4.30;;;2.20;78.80;;;;;;4805102;29;20063;-72
2022/02/27 01:41:03;;;;;;;11.70;3.80;;;2.20;79.00;;;;;;4820347;29;20516;-72
2022/02/27 01:43:31;;;;;;;13.43;3.80;;;2.10;79.20;;;;;;4819473;29;20114;-71
2022/02/27 01:45:59;;;;;;;11.40;3.40;;;2.00;79.30;;;;;;4805833;29;20058;-71
2022/02/27 01:48:26;;;;;;;13.13;3.85;;;1.90;79.50;;;;;;4805770;29;20055;-71
2022/02/27 01:50:55;;;;;;;13.02;4.20;;;1.90;79.60;;;;;;4805598;29;20409;-71
2022/02/27 01:53:26;;;;;;;16.75;4.95;;;1.90;79.90;;;;;;4805667;29;20120;-71
2022/02/27 01:55:55;;;;;;;14.63;4.17;;;1.80;80.10;;;;;;4819613;29;20175;-71
2022/02/27 01:58:26;;;;;;;17.58;4.47;;;1.80;80.20;;;;;;4819845;29;20520;-71
2022/02/27 02:00:56;;;;;;;14.93;4.38;;;1.80;80.20;;;;;;4818966;29;20401;-71
2022/02/27 02:03:25;;;;;;;18.38;4.43;;;1.80;80.30;;;;;;4819976;29;20606;-72
2022/02/27 02:05:53;;;;;;;17.83;4.53;;;1.80;80.40;;;;;;4819903;29;20042;-71
2022/02/27 02:08:21;;;;;;;12.40;4.47;;;1.80;80.60;;;;;;4805267;29;20070;-70
2022/02/27 02:10:51;;;;;;;16.33;4.85;;;1.80;80.70;;;;;;4819503;29;20053;-71
2022/02/27 02:13:19;;;;;;;17.30;4.20;;;1.70;80.80;;;;;;4819759;29;20054;-72
2022/02/27 02:16:00;;;;;;;19.33;4.78;;;1.70;80.90;;;;;;4804479;29;20047;-70
2022/02/27 02:18:38;;;;;;;18.33;4.38;;;1.70;81.00;;;;;;4803398;29;20066;-72
2022/02/27 02:21:07;;;;;;;11.50;4.93;;;1.70;81.00;;;;;;4803582;29;20531;-71
2022/02/27 02:23:34;;;;;;;12.73;4.10;;;1.70;81.20;;;;;;4804342;29;20519;-71
2022/02/27 02:26:03;;;;;;;16.35;4.18;;;1.70;81.20;;;;;;4803500;29;20110;-71
2022/02/27 02:28:31;;;;;;;13.85;5.35;;;1.70;81.40;;;;;;4818331;29;20141;-72
2022/02/27 02:30:58;;;;;;;16.70;5.00;;;1.60;81.60;;;;;;4805577;29;20061;-71
2022/02/27 02:33:37;;;;;;;9.00;4.18;;;1.60;81.80;;;;;;4804594;29;20429;-72
2022/02/27 02:36:07;;;;;;;18.30;5.05;;;1.60;81.80;;;;;;4801985;29;20062;-71
2022/02/27 02:38:35;;;;;;;16.42;4.70;;;1.60;81.90;;;;;;4792280;29;20058;-71
2022/02/27 02:41:03;;;;;;;11.52;4.35;;;1.60;81.90;;;;;;4800158;29;20051;-71
2022/02/27 02:43:31;;;;;;;18.63;5.22;;;1.60;81.90;;;;;;4801013;29;20406;-72
2022/02/27 02:45:59;;;;;;;13.52;4.90;;;1.50;82.10;;;;;;4771355;30;20051;-72
2022/02/27 02:48:27;;;;;;;14.93;4.57;;;1.50;82.30;;;;;;4801108;29;20062;-71
2022/02/27 02:51:17;;;;;;;13.52;4.72;;;1.50;82.30;;;;;;4786992;29;20086;-71
2022/02/27 02:53:45;;;;;;;17.25;5.15;;;1.50;82.30;;;;;;4800749;29;20075;-71
2022/02/27 02:56:13;;;;;;;20.23;5.00;;;1.50;82.40;;;;;;4787437;29;20066;-71
2022/02/27 02:58:42;;;;;;;15.70;4.93;;;1.40;82.70;;;;;;4787370;29;20405;-72
2022/02/27 03:01:15;;;;;;;15.77;4.20;;;1.40;82.70;;;;;;4787280;29;20063;-71
2022/02/27 03:03:44;;;;;;;12.38;5.00;;;1.30;82.80;;;;;;4787875;29;20059;-71
2022/02/27 03:06:13;;;;;;;18.52;5.85;;;1.30;82.80;;;;;;4801184;29;20062;-71
2022/02/27 03:08:42;;;;;;;13.85;5.07;;;1.30;82.80;;;;;;4787053;30;20051;-71
2022/02/27 03:11:10;;;;;;;18.73;5.35;;;1.30;82.90;;;;;;4787577;29;20055;-71
2022/02/27 03:13:37;;;;;;;19.38;5.25;;;1.30;83.00;;;;;;4786730;29;20059;-71
2022/02/27 03:16:06;;;;;;;14.98;4.88;;;1.30;83.20;;;;;;4800179;29;20077;-71
2022/02/27 03:18:34;;;;;;;15.50;4.85;;;1.20;83.20;;;;;;4785514;30;20062;-72
2022/02/27 03:21:05;;;;;;;20.08;5.03;;;1.20;83.30;;;;;;4786760;30;20052;-72
2022/02/27 03:23:33;;;;;;;12.43;4.63;;;1.20;83.40;;;;;;4787006;30;20055;-72
2022/02/27 03:26:02;;;;;;;18.70;4.80;;;1.20;83.60;;;;;;4786738;30;20486;-71
2022/02/27 03:28:30;;;;;;;15.40;4.90;;;1.20;83.80;;;;;;4800106;29;20409;-71
2022/02/27 03:30:57;;;;;;;15.20;4.90;;;1.20;83.80;;;;;;4802801;29;20074;-72
2022/02/27 03:33:25;;;;;;;13.77;4.88;;;1.30;83.90;;;;;;4804216;29;20043;-72
2022/02/27 03:35:53;;;;;;;16.92;4.40;;;1.30;83.90;;;;;;4793639;29;20493;-72
2022/02/27 03:38:20;;;;;;;12.35;4.28;;;1.30;84.00;;;;;;4808207;29;20425;-72
2022/02/27 03:40:48;;;;;;;16.63;4.70;;;1.40;84.00;;;;;;4808135;29;20054;-72
2022/02/27 03:43:15;;;;;;;15.43;4.93;;;1.50;83.90;;;;;;4808167;29;20055;-72
2022/02/27 03:45:43;;;;;;;19.08;5.28;;;1.40;83.90;;;;;;4808417;29;20058;-72
2022/02/27 03:48:11;;;;;;;14.20;4.45;;;1.50;83.90;;;;;;4808299;29;20054;-72
2022/02/27 03:50:38;;;;;;;14.90;4.80;;;1.50;83.80;;;;;;4808225;29;20066;-71
2022/02/27 03:53:06;;;;;;;19.02;4.82;;;1.50;83.90;;;;;;4808507;29;20050;-71
2022/02/27 03:55:34;;;;;;;12.80;4.75;;;1.50;84.00;;;;;;4808100;29;20054;-72
2022/02/27 03:58:03;;;;;;;14.70;4.38;;;1.60;84.00;;;;;;4808032;29;20058;-72
2022/02/27 04:00:31;;;;;;;14.38;4.53;;;1.60;83.90;;;;;;4808021;29;20047;-72
2022/02/27 04:02:58;;;;;;;13.88;4.20;;;1.60;83.90;;;;;;4806909;29;20050;-72
2022/02/27 04:05:26;;;;;;;17.55;5.20;;;1.60;83.90;;;;;;4807971;29;20133;-71
2022/02/27 04:07:54;;;;;;;15.55;4.68;;;1.60;83.90;;;;;;4807783;29;20051;-72
2022/02/27 04:10:21;;;;;;;11.27;4.90;;;1.60;83.90;;;;;;4807874;29;20058;-72
2022/02/27 04:12:49;;;;;;;10.63;4.03;;;1.50;83.90;;;;;;4808268;29;20062;-72
2022/02/27 04:15:17;;;;;;;11.60;4.75;;;1.50;83.90;;;;;;4807719;29;20047;-72
2022/02/27 04:17:44;;;;;;;14.80;4.43;;;1.50;83.90;;;;;;4821464;29;20059;-72
2022/02/27 04:20:12;;;;;;;13.80;4.75;;;1.40;84.00;;;;;;4806557;29;20068;-72
2022/02/27 04:22:39;;;;;;;15.35;4.82;;;1.40;84.00;;;;;;4806421;29;20057;-72
2022/02/27 04:25:07;;;;;;;11.82;5.10;;;1.30;84.10;;;;;;4806279;29;20051;-72
2022/02/27 04:27:35;;;;;;;11.07;4.60;;;1.30;84.10;;;;;;4807274;29;20066;-72
2022/02/27 04:30:04;;;;;;;12.73;5.13;;;1.30;84.10;;;;;;4807521;29;20047;-72
2022/02/27 04:32:31;;;;;;;14.48;5.65;;;1.20;84.20;;;;;;4807509;29;20069;-72
2022/02/27 04:34:59;;;;;;;16.30;5.30;;;1.10;84.30;;;;;;4807681;29;20402;-71
2022/02/27 04:37:28;;;;;;;18.27;5.47;;;1.10;84.40;;;;;;4806181;29;20533;-72
2022/02/27 04:39:56;;;;;;;16.17;5.63;;;1.00;84.50;;;;;;4807506;29;20054;-72
2022/02/27 04:42:23;;;;;;;13.70;5.75;;;1.00;84.50;;;;;;4821060;29;20399;-71
2022/02/27 04:44:51;;;;;;;12.85;5.05;;;1.00;84.50;;;;;;4807181;29;20062;-72
2022/02/27 04:47:19;;;;;;;10.52;5.38;;;0.90;84.70;;;;;;4807170;29;20058;-72
2022/02/27 04:49:48;;;;;;;19.83;5.82;;;0.80;84.80;;;;;;4820698;29;20492;-72
2022/02/27 04:52:17;;;;;;;22.48;5.50;;;0.80;84.80;;;;;;4805029;29;20055;-71
2022/02/27 04:54:45;;;;;;;11.88;5.55;;;0.80;84.90;;;;;;4806857;29;20050;-71
2022/02/27 04:57:12;;;;;;;14.63;5.60;;;0.80;85.00;;;;;;4806892;29;20059;-71
2022/02/27 04:59:40;;;;;;;14.98;5.97;;;0.80;85.10;;;;;;4805620;29;20676;-71
2022/02/27 05:02:08;;;;;;;12.85;5.60;;;0.80;85.20;;;;;;4790788;29;20058;-71
2022/02/27 05:04:37;;;;;;;16.30;6.03;;;0.80;85.30;;;;;;4806620;29;20059;-71
2022/02/27 05:07:05;;;;;;;18.50;5.47;;;0.80;85.30;;;;;;4806879;29;20055;-71
2022/02/27 05:09:32;;;;;;;14.45;4.70;;;0.80;85.50;;;;;;4806783;29;20058;-71
2022/02/27 05:12:01;;;;;;;15.98;5.47;;;0.80;85.50;;;;;;4806906;29;20158;-71
2022/02/27 05:14:29;;;;;;;17.50;5.80;;;0.80;85.50;;;;;;4805555;29;20059;-71
2022/02/27 05:16:56;;;;;;;16.92;6.18;;;0.90;85.70;;;;;;4806832;29;20426;-72
2022/02/27 05:19:24;;;;;;;19.95;5.30;;;0.90;85.60;;;;;;4820569;29;20073;-71
2022/02/27 05:21:52;;;;;;;14.25;5.68;;;0.80;85.60;;;;;;4805381;29;20058;-72
2022/02/27 05:24:21;;;;;;;18.02;5.30;;;0.80;85.70;;;;;;4805459;29;20051;-72
2022/02/27 05:26:48;;;;;;;13.73;5.32;;;0.80;85.70;;;;;;4805478;29;20409;-71
2022/02/27 05:29:16;;;;;;;21.85;6.05;;;0.80;85.80;;;;;;4806534;29;20075;-71
2022/02/27 05:31:45;;;;;;;18.70;5.95;;;0.80;85.90;;;;;;4805268;29;20062;-72
2022/02/27 05:34:13;;;;;;;19.98;6.20;;;0.80;86.00;;;;;;4790452;29;20078;-72
2022/02/27 05:36:40;;;;;;;19.83;5.95;;;0.80;86.10;;;;;;4806467;29;20311;-73
2022/02/27 05:39:08;;;;;;;30.02;6.20;;;0.80;86.00;;;;;;4805104;29;20057;-72
2022/02/27 05:41:36;;;;;;;20.48;6.25;;;0.80;86.00;;;;;;4805219;29;20067;-72
2022/02/27 05:44:04;;;;;;;14.45;6.00;;;0.80;86.00;;;;;;4806313;29;20386;-73
2022/02/27 05:46:32;;;;;;;24.05;6.22;;;0.80;86.10;;;;;;4806205;29;20449;-73
2022/02/27 05:49:00;;;;;;;15.82;5.88;;;0.80;86.10;;;;;;4806106;29;20070;-71
2022/02/27 05:51:27;;;;;;;31.58;6.38;;;0.80;86.10;;;;;;4805934;29;20055;-72
2022/02/27 05:53:55;;;;;;;16.58;6.03;;;0.80;86.30;;;;;;4805465;29;20054;-72
2022/02/27 05:56:22;;;;;;;20.02;6.15;;;0.70;86.30;;;;;;4805812;29;20552;-71
2022/02/27 05:58:52;;;;;;;17.13;6.13;;;0.70;86.30;;;;;;4806021;29;20065;-72
2022/02/27 06:01:20;;;;;;;16.10;5.38;;;0.80;86.30;;;;;;4805628;29;20058;-72
2022/02/27 06:03:48;;;;;;;21.30;6.38;;;0.80;86.40;;;;;;4805748;29;20055;-71
2022/02/27 06:06:15;;;;;;;18.45;6.07;;;0.80;86.60;;;;;;4804771;29;20061;-73
2022/02/27 06:08:43;;;;;;;14.48;5.65;;;0.80;86.60;;;;;;4804913;29;20385;-72
2022/02/27 06:11:10;;;;;;;20.00;6.47;;;0.80;86.70;;;;;;4805879;29;20051;-72
2022/02/27 06:13:38;;;;;;;15.23;5.85;;;0.80;86.80;;;;;;4819885;29;20055;-72
2022/02/27 06:16:05;;;;;;;15.07;6.20;;;0.80;86.80;;;;;;4804542;29;20533;-73
2022/02/27 06:18:33;;;;;;;22.90;6.35;;;0.90;86.90;;;;;;4805643;29;20416;-73
2022/02/27 06:21:01;;;;;;;17.23;5.63;;;0.90;86.90;;;;;;4805580;29;20058;-72
2022/02/27 06:23:28;;;;;;;21.50;6.05;;;1.00;86.90;;;;;;4805379;29;20059;-73
2022/02/27 06:25:56;;;;;;;15.18;6.65;;;1.00;86.90;;;;;;4819672;29;20050;-71
2022/02/27 06:28:23;;;;;;;20.13;6.40;;;1.00;86.80;;;;;;4805702;29;20425;-71
2022/02/27 06:30:51;;;;;;;20.73;6.35;;;1.00;86.80;;;;;;4805549;29;20490;-71
2022/02/27 06:33:19;;;;;;;20.60;6.43;;;1.10;86.70;;;;;;4805406;29;20050;-71
2022/02/27 06:35:46;;;;;;;16.45;6.18;;;1.10;86.70;;;;;;4805416;29;20200;-71
2022/02/27 06:38:14;;;;;;;20.45;6.22;;;1.10;86.80;;;;;;4819394;29;20050;-71
2022/02/27 06:40:42;;;;;;;17.75;5.40;;;1.20;86.60;;;;;;4805063;29;20054;-73
2022/02/27 06:43:10;;;;;;;17.38;5.28;;;1.10;86.60;;;;;;4804026;29;20416;-71
2022/02/27 06:45:38;;;;;;;17.02;5.82;;;1.10;86.60;;;;;;4804096;29;20075;-72
2022/02/27 06:48:07;;;;;;;18.40;7.10;;;1.10;86.60;;;;;;4805278;29;20074;-71
2022/02/27 06:50:34;;;;;;;17.08;6.22;;;1.10;86.60;;;;;;4819357;29;20058;-71
2022/02/27 06:53:02;;;;;;;15.30;5.65;;;1.10;86.60;;;;;;4804060;29;20066;-71
2022/02/27 06:55:30;;;;;;;17.00;5.50;;;1.00;86.60;;;;;;4805218;29;20047;-72
2022/02/27 06:57:57;;;;;;;23.20;6.90;;;1.00;86.70;;;;;;4805212;29;20518;-72
2022/02/27 07:00:25;;;;;;;19.63;6.13;;;1.00;86.70;;;;;;4805172;29;20516;-72
2022/02/27 07:02:54;;;;;;;24.63;7.38;;;1.00;86.70;;;;;;4804728;29;20491;-72
2022/02/27 07:05:28;;;;;;;16.65;6.32;;;1.00;86.60;;;;;;4804907;29;20054;-72
2022/02/27 07:07:56;;;;;;;22.13;6.82;;;0.90;86.70;;;;;;4819010;29;20066;-71
2022/02/27 07:10:23;;;;;;;18.83;5.93;;;1.00;86.70;;;;;;4805018;29;20062;-73
2022/02/27 07:12:52;;;;;;;19.42;6.43;;;0.90;86.80;;;;;;4804912;29;20047;-72
2022/02/27 07:15:20;;;;;;;18.92;6.13;;;1.00;86.80;;;;;;4803770;29;20071;-72
2022/02/27 07:17:47;;;;;;;24.10;6.25;;;0.90;86.70;;;;;;4818912;29;20055;-72
2022/02/27 07:20:16;;;;;;;16.90;5.75;;;1.00;86.80;;;;;;4804977;29;20073;-72
2022/02/27 07:22:44;;;;;;;15.55;5.70;;;1.00;86.80;;;;;;4803652;29;20512;-72
2022/02/27 07:25:11;;;;;;;21.63;5.97;;;1.00;86.70;;;;;;4804872;29;20047;-72
2022/02/27 07:27:39;;;;;;;18.17;5.70;;;0.90;86.70;;;;;;4804967;29;20051;-71
2022/02/27 07:30:07;;;;;;;21.45;6.07;;;0.90;86.80;;;;;;4805284;29;20058;-72
2022/02/27 07:32:35;;;;;;;18.58;5.45;;;0.90;86.80;;;;;;4818683;29;20046;-73
2022/02/27 07:35:03;;;;;;;20.25;6.03;;;1.00;86.80;;;;;;4804789;29;20062;-73
2022/02/27 07:37:32;;;;;;;18.90;5.88;;;0.90;86.80;;;;;;4805042;29;20055;-72
2022/02/27 07:39:59;;;;;;;19.63;6.88;;;0.90;86.80;;;;;;4804541;29;20051;-72
2022/02/27 07:42:27;;;;;;;20.33;6.03;;;0.90;86.70;;;;;;4803187;29;20063;-71
2022/02/27 07:44:55;;;;;;;23.58;5.85;;;0.90;86.80;;;;;;4803166;29;20050;-71
2022/02/27 07:47:24;;;;;;;26.08;7.05;;;1.00;86.90;;;;;;4807546;29;20054;-71
2022/02/27 07:49:52;;;;;;;19.02;6.22;;;1.00;86.90;;;;;;4818383;29;20078;-72
2022/02/27 07:52:20;;;;;;;19.48;6.40;;;1.00;86.80;;;;;;4804151;29;20059;-72
2022/02/27 07:54:48;;;;;;;20.38;5.65;;;1.10;86.70;;;;;;4803340;29;20415;-72
2022/02/27 07:57:16;;;;;;;20.10;6.38;;;1.10;86.80;;;;;;4804638;29;20062;-72
2022/02/27 07:59:44;;;;;;;18.15;5.45;;;1.20;86.70;;;;;;4804493;29;20062;-71
2022/02/27 08:02:12;;;;;;;18.10;5.35;;;1.20;86.70;;;;;;4804640;29;20066;-72
2022/02/27 08:04:40;;;;;;;25.08;6.07;;;1.30;86.70;;;;;;4803758;29;20062;-72
2022/02/27 08:07:07;;;;;;;19.35;5.60;;;1.30;86.70;;;;;;4804662;29;20050;-72
2022/02/27 08:09:35;;;;;;;16.05;5.57;;;1.30;86.60;;;;;;4804506;29;20055;-72
2022/02/27 08:12:03;;;;;;;25.13;6.13;;;1.40;86.60;;;;;;4804458;29;20054;-72
2022/02/27 08:14:31;;;;;;;20.40;6.47;;;1.40;86.50;;;;;;4788394;29;20532;-71
2022/02/27 08:16:58;;;;;;;24.50;6.30;;;1.50;86.40;;;;;;4807075;29;20525;-73
2022/02/27 08:19:26;;;;;;;19.58;5.72;;;1.50;86.40;;;;;;4791742;29;20059;-71
2022/02/27 08:21:54;;;;;;;18.20;6.32;;;1.60;86.30;;;;;;4807583;29;20062;-71
2022/02/27 08:24:21;;;;;;;25.55;5.47;;;1.70;86.30;;;;;;4806217;29;20378;-71
2022/02/27 08:26:49;;;;;;;15.93;6.20;;;1.70;86.10;;;;;;4807695;29;20051;-71
2022/02/27 08:29:17;;;;;;;20.45;5.35;;;1.70;86.10;;;;;;4807229;29;20062;-72
2022/02/27 08:31:45;;;;;;;17.45;5.30;;;1.80;86.00;;;;;;4807548;29;20412;-71
2022/02/27 08:34:13;;;;;;;20.40;5.80;;;1.80;85.90;;;;;;4807099;29;20059;-72
2022/02/27 08:36:40;;;;;;;18.55;5.32;;;1.80;85.70;;;;;;4806318;29;20054;-71
2022/02/27 08:39:09;;;;;;;21.05;5.68;;;1.90;85.70;;;;;;4807395;29;20405;-72
2022/02/27 08:41:39;;;;;;;16.60;5.05;;;2.00;85.60;;;;;;4807429;29;20402;-71
2022/02/27 08:44:07;;;;;;;25.88;6.38;;;2.00;85.50;;;;;;4807067;29;20051;-71
2022/02/27 08:46:35;;;;;;;17.13;5.63;;;2.10;85.40;;;;;;4807271;29;20050;-72
2022/02/27 08:49:06;;;;;;;24.33;5.72;;;2.10;85.30;;;;;;4807405;29;20423;-71
2022/02/27 08:51:33;;;;;;;14.90;5.15;;;2.20;85.20;;;;;;4805981;29;20058;-72
2022/02/27 08:54:04;;;;;;;15.38;5.40;;;2.20;85.00;;;;;;4806846;29;20055;-71
2022/02/27 08:56:32;;;;;;;14.18;5.28;;;2.30;84.90;;;;;;4807216;29;20058;-71
2022/02/27 08:58:59;;;;;;;20.45;5.63;;;2.30;84.80;;;;;;4806964;29;20062;-72
2022/02/27 09:01:27;;;;;;;20.75;5.90;;;2.40;84.60;;;;;;4807135;29;20051;-72
2022/02/27 09:03:55;;;;;;;15.85;5.57;;;2.40;84.60;;;;;;4806777;29;20399;-72
2022/02/27 09:06:23;;;;;;;18.55;4.63;;;2.50;84.50;;;;;;4806929;29;20058;-72
2022/02/27 09:08:50;;;;;;;22.80;6.25;;;2.50;84.30;;;;;;4807003;29;20055;-72
2022/02/27 09:11:18;;;;;;;18.63;4.43;;;2.60;84.20;;;;;;4806633;29;20358;-72
2022/02/27 09:13:47;;;;;;;21.35;5.25;;;2.60;84.20;;;;;;4806698;29;20055;-72
2022/02/27 09:16:15;;;;;;;17.48;5.03;;;2.70;84.00;;;;;;4805687;29;20470;-73
2022/02/27 09:18:43;;;;;;;24.73;5.53;;;2.80;83.90;;;;;;4806755;29;20058;-72
2022/02/27 09:21:11;;;;;;;16.35;5.50;;;2.80;83.70;;;;;;4805367;29;20078;-72
2022/02/27 09:23:39;;;;;;;18.50;5.70;;;2.90;83.50;;;;;;4806862;29;20066;-73
2022/02/27 09:26:06;;;;;;;17.98;4.60;;;3.00;83.40;;;;;;4806585;29;20397;-72
2022/02/27 09:28:52;;;;;;;19.92;5.00;;;3.00;83.30;;;;;;4805768;29;20486;-71
2022/02/27 09:31:19;;;;;;;15.85;4.75;;;3.20;83.10;;;;;;4805403;29;20062;-72
2022/02/27 09:33:47;;;;;;;17.17;4.55;;;3.20;82.80;;;;;;4805403;29;20060;-70
2022/02/27 09:36:15;;;;;;;18.33;4.90;;;3.30;82.70;;;;;;4805406;29;20062;-71
2022/02/27 09:38:43;;;;;;;24.40;5.63;;;3.40;82.60;;;;;;4806446;29;20055;-71
2022/02/27 09:41:12;;;;;;;17.27;5.20;;;3.50;82.40;;;;;;4806413;29;20506;-72
2022/02/27 09:43:40;;;;;;;16.60;5.40;;;3.50;82.30;;;;;;4806309;29;20058;-71
2022/02/27 09:46:08;;;;;;;17.85;4.85;;;3.60;82.10;;;;;;4806173;29;20055;-72
2022/02/27 09:48:36;;;;;;;19.40;5.32;;;3.70;82.00;;;;;;4806311;29;20054;-72
2022/02/27 09:51:04;;;;;;;15.15;4.85;;;3.80;81.70;;;;;;4805951;29;20505;-72
2022/02/27 09:53:31;;;;;;;22.17;4.90;;;3.90;81.30;;;;;;4806085;29;20055;-72
2022/02/27 09:55:59;;;;;;;19.25;4.90;;;3.90;81.10;;;;;;4805513;29;20066;-72
2022/02/27 09:58:27;;;;;;;17.98;4.45;;;4.00;80.90;;;;;;4806035;29;20055;-72
2022/02/27 10:00:55;;;;;;;12.50;4.63;;;4.10;80.80;;;;;;4805685;29;20061;-72
2022/02/27 10:03:31;;;;;;;17.35;4.70;;;4.20;80.60;;;;;;4805878;29;20062;-72
2022/02/27 10:06:06;;;;;;;19.20;5.03;;;4.30;80.40;;;;;;4805725;29;20059;-72
2022/02/27 10:08:39;;;;;;;13.25;4.57;;;4.40;80.20;;;;;;4806037;29;20043;-72
2022/02/27 10:11:10;;;;;;;18.38;4.70;;;4.50;80.00;;;;;;4805747;29;20497;-72
2022/02/27 10:13:43;;;;;;;15.32;4.15;;;4.70;79.90;;;;;;4805848;29;20062;-72
2022/02/27 10:16:13;;;;;;;13.95;4.38;;;4.80;79.60;;;;;;4804668;29;20059;-73
2022/02/27 10:18:44;;;;;;;14.00;4.50;;;4.80;79.50;;;;;;4805690;29;20212;-71
2022/02/27 10:21:25;;;;;;;11.45;4.40;;;4.90;78.90;;;;;;4805772;29;20502;-71
2022/02/27 10:24:14;;;;;;;16.20;4.10;;;5.10;78.60;;;;;;4805551;29;20408;-71
2022/02/27 10:26:47;;;;;;;10.93;4.20;;;5.20;78.10;;;;;;4805588;29;20054;-71
2022/02/27 10:29:18;;;;;;;12.63;4.53;;;5.30;77.90;;;;;;4805732;29;20073;-71
2022/02/27 10:31:57;;;;;;;13.82;4.78;;;5.40;77.70;;;;;;4805607;29;20058;-71
2022/02/27 10:34:36;;;;;;;17.05;4.65;;;5.50;77.40;;;;;;4805562;29;20046;-71
2022/02/27 10:37:18;;;;;;;15.88;4.50;;;5.70;77.00;;;;;;4805283;29;20555;-71
2022/02/27 10:39:52;;;;;;;12.63;4.25;;;5.80;76.70;;;;;;4788943;29;20062;-71
2022/02/27 10:42:27;;;;;;;19.52;4.65;;;5.90;76.00;;;;;;4804106;29;20385;-71
2022/02/27 10:44:56;;;;;;;18.00;4.97;;;6.00;75.50;;;;;;4805316;29;20062;-71
2022/02/27 10:47:31;;;;;;;11.02;4.07;;;6.10;75.10;;;;;;4805265;29;20054;-71
2022/02/27 10:50:19;;;;;;;12.23;4.63;;;6.20;74.70;;;;;;4805445;29;20119;-71
2022/02/27 10:52:46;;;;;;;11.63;4.25;;;6.30;74.70;;;;;;4819328;29;20051;-71
2022/02/27 10:55:16;;;;;;;12.45;4.43;;;6.40;74.40;;;;;;4805008;29;20062;-71
2022/02/27 10:57:46;;;;;;;14.02;4.65;;;6.50;73.70;;;;;;4804157;29;20055;-71
2022/02/27 11:00:19;;;;;;;9.98;3.55;;;6.60;73.00;;;;;;4805198;29;20058;-71
2022/02/27 11:02:49;;;;;;;16.13;4.63;;;6.70;72.70;;;;;;4803877;29;20058;-71
2022/02/27 11:05:28;;;;;;;16.13;4.00;;;6.80;71.50;;;;;;4805121;29;20055;-71
2022/02/27 11:07:58;;;;;;;16.52;4.45;;;6.90;71.40;;;;;;4805181;29;20073;-71
2022/02/27 11:10:28;;;;;;;20.88;5.25;;;7.00;70.70;;;;;;4805079;29;20051;-71
2022/02/27 11:13:08;;;;;;;15.88;4.47;;;7.00;70.20;;;;;;4804742;29;20574;-71
2022/02/27 11:15:36;;;;;;;15.40;4.03;;;7.00;70.90;;;;;;4818460;29;20055;-71
2022/02/27 11:18:05;;;;;;;12.35;4.38;;;7.10;70.80;;;;;;4805044;29;20051;-72
2022/02/27 11:20:34;;;;;;;22.10;4.70;;;7.20;70.30;;;;;;4789022;29;20050;-72
2022/02/27 11:23:01;;;;;;;10.13;3.85;;;7.30;70.20;;;;;;4805021;29;20062;-72
2022/02/27 11:25:29;;;;;;;13.65;4.20;;;7.40;69.90;;;;;;4804664;29;20509;-71
2022/02/27 11:28:09;;;;;;;13.50;3.95;;;7.40;69.90;;;;;;4804883;29;20062;-71
2022/02/27 11:30:39;;;;;;;18.50;4.00;;;7.50;70.10;;;;;;4803742;29;20055;-71
2022/02/27 11:33:18;;;;;;;11.27;4.18;;;7.60;69.60;;;;;;4803767;29;20070;-71
2022/02/27 11:35:52;;;;;;;14.85;4.03;;;7.60;69.30;;;;;;4804850;29;20054;-71
2022/02/27 11:38:28;;;;;;;15.65;4.28;;;7.70;69.30;;;;;;4804737;29;20047;-70
2022/02/27 11:41:13;;;;;;;14.27;4.00;;;7.90;69.00;;;;;;4804955;29;20054;-72
2022/02/27 11:43:53;;;;;;;15.68;4.60;;;8.20;68.60;;;;;;4803145;29;20055;-72
2022/02/27 11:46:40;;;;;;;9.48;3.80;;;8.30;67.70;;;;;;4803512;29;20059;-72
2022/02/27 11:49:25;;;;;;;12.57;3.95;;;8.50;67.10;;;;;;4804925;29;20059;-72
2022/02/27 11:52:12;;;;;;;13.77;3.60;;;8.60;66.90;;;;;;4806974;29;20074;-72
2022/02/27 11:54:50;;;;;;;16.30;4.20;;;8.70;66.40;;;;;;4807137;29;20498;-71
2022/02/27 11:57:19;;;;;;;16.70;4.00;;;8.80;65.80;;;;;;4807008;29;20070;-71
2022/02/27 11:59:57;;;;;;;14.20;4.85;;;8.80;65.70;;;;;;4807573;29;20498;-70
2022/02/27 12:02:47;;;;;;;11.57;3.60;;;8.90;65.10;;;;;;4808275;29;20417;-71
2022/02/27 12:05:18;;;;;;;13.63;3.90;;;9.00;64.50;;;;;;4808063;29;20051;-70
2022/02/27 12:07:57;;;;;;;16.17;3.80;;;9.10;63.90;;;;;;4807862;29;20421;-71
2022/02/27 12:10:44;;;;;;;15.13;4.03;;;9.30;63.70;;;;;;4808005;29;20051;-70
2022/02/27 12:13:25;;;;;;;14.05;3.78;;;9.60;62.90;;;;;;4808304;29;20059;-70
2022/02/27 12:16:10;;;;;;;12.65;3.60;;;9.90;62.40;;;;;;4791859;29;20051;-70
2022/02/27 12:18:53;;;;;;;13.52;3.60;;;10.30;62.00;;;;;;4806837;29;20059;-71
2022/02/27 12:21:39;;;;;;;12.93;3.72;;;10.80;60.30;;;;;;4807730;29;20524;-71
2022/02/27 12:24:25;;;;;;;12.45;3.67;;;11.20;59.90;;;;;;4807765;29;20494;-71
2022/02/27 12:27:05;;;;;;;9.80;3.53;;;11.60;59.40;;;;;;4821303;29;20062;-71
2022/02/27 12:29:41;;;;;;;13.23;3.58;;;12.00;57.70;;;;;;4807574;29;20043;-72
2022/02/27 12:32:22;;;;;;;13.10;3.65;;;12.20;56.80;;;;;;4806251;29;20050;-71
2022/02/27 12:34:55;;;;;;;13.88;3.50;;;12.40;56.40;;;;;;4807493;29;20047;-71
2022/02/27 12:37:23;;;;;;;11.70;3.58;;;12.60;55.30;;;;;;4807389;29;20035;-71
2022/02/27 12:39:53;;;;;;;11.82;3.63;;;12.80;53.70;;;;;;4807430;29;20401;-71
2022/02/27 12:42:23;;;;;;;14.30;3.65;;;12.90;53.40;;;;;;4807243;29;20070;-71
2022/02/27 12:44:53;;;;;;;20.15;4.45;;;13.10;51.90;;;;;;4807128;29;20065;-71
2022/02/27 12:47:22;;;;;;;12.10;3.72;;;13.30;51.70;;;;;;4807187;29;20090;-72
2022/02/27 12:52:40;;;;;;;14.90;3.78;;;13.50;50.70;;;;;;4807061;29;20402;-71
2022/02/27 12:55:20;;;;;;;13.25;3.88;;;13.60;49.80;;;;;;4807175;29;20069;-71
2022/02/27 12:57:50;;;;;;;8.77;2.78;;;13.90;50.10;;;;;;4805887;29;20054;-71
2022/02/27 13:00:21;;;;;;;13.10;4.00;;;14.10;48.80;;;;;;4806876;29;20054;-71
2022/02/27 13:02:51;;;;;;;8.60;3.20;;;14.30;48.00;;;;;;4806744;29;20062;-71
2022/02/27 13:05:19;;;;;;;9.43;3.28;;;14.60;47.10;;;;;;4806730;29;20082;-72